sensor_id;sensor_type;location;lat;lon;timestamp;P1;durP1;ratioP1;P2;durP2;ratioP2
2213;SDS011;1113;42.018;23.986;2023-04-25T00:01:20;7.40;;;4.67;;
2213;SDS011;1113;42.018;23.986;2023-04-25T00:03:47;5.30;;;4.27;;
2213;SDS011;1113;42.018;23.986;2023-04-25T00:06:15;5.50;;;3.63;;
2213;SDS011;1113;42.018;23.986;2023-04-25T00:08:42;4.63;;;3.23;;
2213;SDS011;1113;42.018;23.986;2023-04-25T00:11:09;4.73;;;3.53;;
2213;SDS011;1113;42.018;23.986;2023-04-25T00:13:35;5.70;;;3.90;;
2213;SDS011;1113;42.018;23.986;2023-04-25T00:16:02;4.83;;;3.50;;
2213;SDS011;1113;42.018;23.986;2023-04-25T00:18:29;3.83;;;3.20;;
2213;SDS011;1113;42.018;23.986;2023-04-25T00:20:58;4.97;;;3.93;;
2213;SDS011;1113;42.018;23.986;2023-04-25T00:23:26;6.40;;;4.40;;
2213;SDS011;1113;42.018;23.986;2023-04-25T00:25:53;6.00;;;4.60;;
2213;SDS011;1113;42.018;23.986;2023-04-25T00:28:19;5.80;;;4.80;;
2213;SDS011;1113;42.018;23.986;2023-04-25T00:30:46;8.93;;;6.50;;
2213;SDS011;1113;42.018;23.986;2023-04-25T00:33:12;10.23;;;6.23;;
2213;SDS011;1113;42.018;23.986;2023-04-25T00:35:39;8.00;;;6.30;;
2213;SDS011;1113;42.018;23.986;2023-04-25T00:38:05;6.67;;;5.40;;
2213;SDS011;1113;42.018;23.986;2023-04-25T00:40:33;8.13;;;6.33;;
2213;SDS011;1113;42.018;23.986;2023-04-25T00:43:00;6.50;;;5.57;;
2213;SDS011;1113;42.018;23.986;2023-04-25T00:45:28;11.00;;;6.73;;
2213;SDS011;1113;42.018;23.986;2023-04-25T00:47:55;7.53;;;5.77;;
2213;SDS011;1113;42.018;23.986;2023-04-25T00:50:22;6.03;;;4.37;;
2213;SDS011;1113;42.018;23.986;2023-04-25T00:52:49;4.30;;;3.23;;
2213;SDS011;1113;42.018;23.986;2023-04-25T00:55:15;5.60;;;3.50;;
2213;SDS011;1113;42.018;23.986;2023-04-25T00:57:43;3.90;;;2.47;;
2213;SDS011;1113;42.018;23.986;2023-04-25T01:00:10;4.13;;;2.67;;
2213;SDS011;1113;42.018;23.986;2023-04-25T01:02:38;4.13;;;3.00;;
2213;SDS011;1113;42.018;23.986;2023-04-25T01:05:06;4.23;;;2.40;;
2213;SDS011;1113;42.018;23.986;2023-04-25T01:07:32;3.20;;;2.13;;
2213;SDS011;1113;42.018;23.986;2023-04-25T01:10:00;2.30;;;1.50;;
2213;SDS011;1113;42.018;23.986;2023-04-25T01:12:29;2.93;;;1.50;;
2213;SDS011;1113;42.018;23.986;2023-04-25T01:14:57;2.50;;;1.60;;
2213;SDS011;1113;42.018;23.986;2023-04-25T01:17:23;3.03;;;1.90;;
2213;SDS011;1113;42.018;23.986;2023-04-25T01:19:50;3.10;;;1.57;;
2213;SDS011;1113;42.018;23.986;2023-04-25T01:22:18;2.63;;;1.53;;
2213;SDS011;1113;42.018;23.986;2023-04-25T01:24:45;3.20;;;1.60;;
2213;SDS011;1113;42.018;23.986;2023-04-25T01:27:12;2.70;;;1.80;;
2213;SDS011;1113;42.018;23.986;2023-04-25T01:29:39;2.17;;;1.50;;
2213;SDS011;1113;42.018;23.986;2023-04-25T01:32:05;2.17;;;1.30;;
2213;SDS011;1113;42.018;23.986;2023-04-25T01:34:32;2.53;;;1.60;;
2213;SDS011;1113;42.018;23.986;2023-04-25T01:36:59;2.40;;;1.40;;
2213;SDS011;1113;42.018;23.986;2023-04-25T01:39:27;4.03;;;2.00;;
2213;SDS011;1113;42.018;23.986;2023-04-25T01:41:54;2.67;;;1.70;;
2213;SDS011;1113;42.018;23.986;2023-04-25T01:44:21;4.40;;;1.87;;
2213;SDS011;1113;42.018;23.986;2023-04-25T01:46:47;2.30;;;1.30;;
2213;SDS011;1113;42.018;23.986;2023-04-25T01:49:14;2.77;;;2.00;;
2213;SDS011;1113;42.018;23.986;2023-04-25T01:51:40;2.47;;;1.90;;
2213;SDS011;1113;42.018;23.986;2023-04-25T01:54:07;3.10;;;1.70;;
2213;SDS011;1113;42.018;23.986;2023-04-25T01:56:37;5.23;;;4.73;;
2213;SDS011;1113;42.018;23.986;2023-04-25T01:59:04;2.50;;;1.60;;
2213;SDS011;1113;42.018;23.986;2023-04-25T02:01:31;2.37;;;1.70;;
2213;SDS011;1113;42.018;23.986;2023-04-25T02:03:57;2.53;;;1.93;;
2213;SDS011;1113;42.018;23.986;2023-04-25T02:06:24;3.83;;;2.33;;
2213;SDS011;1113;42.018;23.986;2023-04-25T02:08:50;5.37;;;3.57;;
2213;SDS011;1113;42.018;23.986;2023-04-25T02:11:17;6.07;;;3.50;;
2213;SDS011;1113;42.018;23.986;2023-04-25T02:13:45;4.43;;;3.03;;
2213;SDS011;1113;42.018;23.986;2023-04-25T02:16:11;5.50;;;3.67;;
2213;SDS011;1113;42.018;23.986;2023-04-25T02:18:38;5.70;;;3.70;;
2213;SDS011;1113;42.018;23.986;2023-04-25T02:21:05;5.90;;;4.30;;
2213;SDS011;1113;42.018;23.986;2023-04-25T02:23:31;6.90;;;4.20;;
2213;SDS011;1113;42.018;23.986;2023-04-25T02:25:58;6.50;;;4.40;;
2213;SDS011;1113;42.018;23.986;2023-04-25T02:28:24;5.70;;;4.17;;
2213;SDS011;1113;42.018;23.986;2023-04-25T02:30:53;6.83;;;4.97;;
2213;SDS011;1113;42.018;23.986;2023-04-25T02:33:19;8.13;;;4.00;;
2213;SDS011;1113;42.018;23.986;2023-04-25T02:35:46;9.17;;;5.77;;
2213;SDS011;1113;42.018;23.986;2023-04-25T02:38:13;5.13;;;3.80;;
2213;SDS011;1113;42.018;23.986;2023-04-25T02:40:39;4.80;;;2.90;;
2213;SDS011;1113;42.018;23.986;2023-04-25T02:43:06;5.10;;;3.27;;
2213;SDS011;1113;42.018;23.986;2023-04-25T02:45:33;3.00;;;2.07;;
2213;SDS011;1113;42.018;23.986;2023-04-25T02:48:01;2.40;;;1.93;;
2213;SDS011;1113;42.018;23.986;2023-04-25T02:50:28;3.50;;;2.30;;
2213;SDS011;1113;42.018;23.986;2023-04-25T02:52:54;3.37;;;2.30;;
2213;SDS011;1113;42.018;23.986;2023-04-25T02:55:21;3.50;;;2.30;;
2213;SDS011;1113;42.018;23.986;2023-04-25T02:57:47;4.37;;;2.87;;
2213;SDS011;1113;42.018;23.986;2023-04-25T03:00:14;6.47;;;4.77;;
2213;SDS011;1113;42.018;23.986;2023-04-25T03:02:40;3.77;;;3.00;;
2213;SDS011;1113;42.018;23.986;2023-04-25T03:05:08;3.10;;;2.50;;
2213;SDS011;1113;42.018;23.986;2023-04-25T03:07:35;2.10;;;1.70;;
2213;SDS011;1113;42.018;23.986;2023-04-25T03:10:01;2.90;;;1.57;;
2213;SDS011;1113;42.018;23.986;2023-04-25T03:12:28;2.17;;;1.67;;
2213;SDS011;1113;42.018;23.986;2023-04-25T03:14:54;3.90;;;2.07;;
2213;SDS011;1113;42.018;23.986;2023-04-25T03:17:21;2.30;;;1.57;;
2213;SDS011;1113;42.018;23.986;2023-04-25T03:19:47;4.40;;;2.30;;
2213;SDS011;1113;42.018;23.986;2023-04-25T03:22:15;4.20;;;3.30;;
2213;SDS011;1113;42.018;23.986;2023-04-25T03:24:41;3.27;;;2.60;;
2213;SDS011;1113;42.018;23.986;2023-04-25T03:27:08;5.13;;;2.70;;
2213;SDS011;1113;42.018;23.986;2023-04-25T03:29:34;4.80;;;3.47;;
2213;SDS011;1113;42.018;23.986;2023-04-25T03:32:01;5.07;;;2.80;;
2213;SDS011;1113;42.018;23.986;2023-04-25T03:34:27;3.13;;;2.40;;
2213;SDS011;1113;42.018;23.986;2023-04-25T03:36:54;3.60;;;2.60;;
2213;SDS011;1113;42.018;23.986;2023-04-25T03:39:22;5.80;;;4.37;;
2213;SDS011;1113;42.018;23.986;2023-04-25T03:41:49;6.30;;;4.80;;
2213;SDS011;1113;42.018;23.986;2023-04-25T03:44:15;9.60;;;6.20;;
2213;SDS011;1113;42.018;23.986;2023-04-25T03:46:42;10.27;;;7.10;;
2213;SDS011;1113;42.018;23.986;2023-04-25T03:49:08;9.27;;;6.50;;
2213;SDS011;1113;42.018;23.986;2023-04-25T03:51:35;9.20;;;7.13;;
2213;SDS011;1113;42.018;23.986;2023-04-25T03:54:01;10.63;;;8.40;;
2213;SDS011;1113;42.018;23.986;2023-04-25T03:56:29;9.67;;;7.30;;
2213;SDS011;1113;42.018;23.986;2023-04-25T03:58:56;9.80;;;7.93;;
2213;SDS011;1113;42.018;23.986;2023-04-25T04:01:22;6.50;;;5.40;;
2213;SDS011;1113;42.018;23.986;2023-04-25T04:03:49;6.60;;;5.27;;
2213;SDS011;1113;42.018;23.986;2023-04-25T04:06:16;8.20;;;6.67;;
2213;SDS011;1113;42.018;23.986;2023-04-25T04:08:43;10.00;;;8.20;;
2213;SDS011;1113;42.018;23.986;2023-04-25T04:11:09;12.40;;;7.73;;
2213;SDS011;1113;42.018;23.986;2023-04-25T04:13:38;11.20;;;9.37;;
2213;SDS011;1113;42.018;23.986;2023-04-25T04:16:05;16.13;;;13.10;;
2213;SDS011;1113;42.018;23.986;2023-04-25T04:18:31;14.10;;;11.57;;
2213;SDS011;1113;42.018;23.986;2023-04-25T04:20:59;12.07;;;8.37;;
2213;SDS011;1113;42.018;23.986;2023-04-25T04:23:25;12.47;;;9.47;;
2213;SDS011;1113;42.018;23.986;2023-04-25T04:25:53;10.40;;;8.47;;
2213;SDS011;1113;42.018;23.986;2023-04-25T04:28:20;8.27;;;6.27;;
2213;SDS011;1113;42.018;23.986;2023-04-25T04:30:48;6.80;;;5.80;;
2213;SDS011;1113;42.018;23.986;2023-04-25T04:33:16;8.13;;;7.03;;
2213;SDS011;1113;42.018;23.986;2023-04-25T04:35:44;10.30;;;8.30;;
2213;SDS011;1113;42.018;23.986;2023-04-25T04:38:11;9.50;;;8.50;;
2213;SDS011;1113;42.018;23.986;2023-04-25T04:40:40;12.20;;;10.07;;
2213;SDS011;1113;42.018;23.986;2023-04-25T04:43:06;11.97;;;10.70;;
2213;SDS011;1113;42.018;23.986;2023-04-25T04:45:36;16.90;;;14.67;;
2213;SDS011;1113;42.018;23.986;2023-04-25T04:48:05;33.60;;;29.93;;
2213;SDS011;1113;42.018;23.986;2023-04-25T04:50:31;27.00;;;20.70;;
2213;SDS011;1113;42.018;23.986;2023-04-25T04:52:59;18.30;;;16.30;;
2213;SDS011;1113;42.018;23.986;2023-04-25T04:55:25;15.40;;;14.00;;
2213;SDS011;1113;42.018;23.986;2023-04-25T04:57:52;14.53;;;13.03;;
2213;SDS011;1113;42.018;23.986;2023-04-25T05:00:19;11.70;;;10.27;;
2213;SDS011;1113;42.018;23.986;2023-04-25T05:02:45;11.13;;;8.13;;
2213;SDS011;1113;42.018;23.986;2023-04-25T05:05:13;9.07;;;6.47;;
2213;SDS011;1113;42.018;23.986;2023-04-25T05:07:40;10.10;;;7.47;;
2213;SDS011;1113;42.018;23.986;2023-04-25T05:10:07;9.83;;;7.20;;
2213;SDS011;1113;42.018;23.986;2023-04-25T05:12:33;10.00;;;8.17;;
2213;SDS011;1113;42.018;23.986;2023-04-25T05:15:00;10.13;;;8.40;;
2213;SDS011;1113;42.018;23.986;2023-04-25T05:17:26;18.67;;;9.93;;
2213;SDS011;1113;42.018;23.986;2023-04-25T05:19:53;13.87;;;8.10;;
2213;SDS011;1113;42.018;23.986;2023-04-25T05:22:21;11.37;;;6.80;;
2213;SDS011;1113;42.018;23.986;2023-04-25T05:24:47;11.77;;;8.50;;
2213;SDS011;1113;42.018;23.986;2023-04-25T05:27:16;11.13;;;8.83;;
2213;SDS011;1113;42.018;23.986;2023-04-25T05:29:43;10.57;;;9.20;;
2213;SDS011;1113;42.018;23.986;2023-04-25T05:32:09;10.37;;;7.80;;
2213;SDS011;1113;42.018;23.986;2023-04-25T05:34:36;11.87;;;9.27;;
2213;SDS011;1113;42.018;23.986;2023-04-25T05:37:03;9.30;;;7.63;;
2213;SDS011;1113;42.018;23.986;2023-04-25T05:39:31;9.43;;;7.63;;
2213;SDS011;1113;42.018;23.986;2023-04-25T05:41:57;13.27;;;9.87;;
2213;SDS011;1113;42.018;23.986;2023-04-25T05:44:24;10.20;;;8.70;;
2213;SDS011;1113;42.018;23.986;2023-04-25T05:46:51;8.20;;;7.30;;
2213;SDS011;1113;42.018;23.986;2023-04-25T05:49:18;9.10;;;7.87;;
2213;SDS011;1113;42.018;23.986;2023-04-25T05:51:44;7.87;;;7.07;;
2213;SDS011;1113;42.018;23.986;2023-04-25T05:54:11;10.53;;;7.53;;
2213;SDS011;1113;42.018;23.986;2023-04-25T05:56:39;7.43;;;6.63;;
2213;SDS011;1113;42.018;23.986;2023-04-25T05:59:05;7.63;;;6.83;;
2213;SDS011;1113;42.018;23.986;2023-04-25T06:01:32;9.57;;;7.33;;
2213;SDS011;1113;42.018;23.986;2023-04-25T06:03:58;10.17;;;7.07;;
2213;SDS011;1113;42.018;23.986;2023-04-25T06:06:25;4.10;;;3.33;;
2213;SDS011;1113;42.018;23.986;2023-04-25T06:08:51;3.73;;;3.10;;
2213;SDS011;1113;42.018;23.986;2023-04-25T06:11:18;4.80;;;3.50;;
2213;SDS011;1113;42.018;23.986;2023-04-25T06:13:46;4.00;;;3.60;;
2213;SDS011;1113;42.018;23.986;2023-04-25T06:16:13;3.37;;;3.07;;
2213;SDS011;1113;42.018;23.986;2023-04-25T06:18:39;6.03;;;3.20;;
2213;SDS011;1113;42.018;23.986;2023-04-25T06:21:06;4.20;;;3.43;;
2213;SDS011;1113;42.018;23.986;2023-04-25T06:23:32;4.47;;;3.53;;
2213;SDS011;1113;42.018;23.986;2023-04-25T06:25:59;3.70;;;3.23;;
2213;SDS011;1113;42.018;23.986;2023-04-25T06:28:25;5.83;;;2.90;;
2213;SDS011;1113;42.018;23.986;2023-04-25T06:30:53;3.40;;;2.73;;
2213;SDS011;1113;42.018;23.986;2023-04-25T06:33:20;4.87;;;3.10;;
2213;SDS011;1113;42.018;23.986;2023-04-25T06:35:47;3.87;;;3.30;;
2213;SDS011;1113;42.018;23.986;2023-04-25T06:38:13;4.30;;;3.10;;
2213;SDS011;1113;42.018;23.986;2023-04-25T06:40:41;3.63;;;2.60;;
2213;SDS011;1113;42.018;23.986;2023-04-25T06:43:07;3.70;;;3.20;;
2213;SDS011;1113;42.018;23.986;2023-04-25T06:45:34;3.47;;;2.97;;
2213;SDS011;1113;42.018;23.986;2023-04-25T06:48:02;4.40;;;2.77;;
2213;SDS011;1113;42.018;23.986;2023-04-25T06:50:29;3.47;;;2.60;;
2213;SDS011;1113;42.018;23.986;2023-04-25T06:52:55;3.27;;;2.80;;
2213;SDS011;1113;42.018;23.986;2023-04-25T06:55:22;5.60;;;2.87;;
2213;SDS011;1113;42.018;23.986;2023-04-25T06:57:48;2.67;;;2.20;;
2213;SDS011;1113;42.018;23.986;2023-04-25T07:00:15;3.43;;;2.80;;
2213;SDS011;1113;42.018;23.986;2023-04-25T07:02:42;3.40;;;3.07;;
2213;SDS011;1113;42.018;23.986;2023-04-25T07:05:10;4.03;;;2.90;;
2213;SDS011;1113;42.018;23.986;2023-04-25T07:07:36;2.80;;;2.40;;
2213;SDS011;1113;42.018;23.986;2023-04-25T07:10:03;7.93;;;2.40;;
2213;SDS011;1113;42.018;23.986;2023-04-25T07:12:30;3.40;;;2.50;;
2213;SDS011;1113;42.018;23.986;2023-04-25T07:14:57;4.60;;;3.17;;
2213;SDS011;1113;42.018;23.986;2023-04-25T07:17:23;4.17;;;3.20;;
2213;SDS011;1113;42.018;23.986;2023-04-25T07:19:50;3.27;;;2.97;;
2213;SDS011;1113;42.018;23.986;2023-04-25T07:22:18;4.13;;;3.43;;
2213;SDS011;1113;42.018;23.986;2023-04-25T07:24:44;3.37;;;2.43;;
2213;SDS011;1113;42.018;23.986;2023-04-25T07:27:13;3.90;;;2.77;;
2213;SDS011;1113;42.018;23.986;2023-04-25T07:29:40;3.20;;;2.40;;
2213;SDS011;1113;42.018;23.986;2023-04-25T07:32:07;3.73;;;2.87;;
2213;SDS011;1113;42.018;23.986;2023-04-25T07:34:33;6.33;;;3.20;;
2213;SDS011;1113;42.018;23.986;2023-04-25T07:37:02;3.40;;;2.80;;
2213;SDS011;1113;42.018;23.986;2023-04-25T07:39:30;4.50;;;3.10;;
2213;SDS011;1113;42.018;23.986;2023-04-25T07:41:56;3.70;;;2.60;;
2213;SDS011;1113;42.018;23.986;2023-04-25T07:44:25;2.57;;;2.30;;
2213;SDS011;1113;42.018;23.986;2023-04-25T07:46:52;3.13;;;1.80;;
2213;SDS011;1113;42.018;23.986;2023-04-25T07:49:18;2.53;;;2.07;;
2213;SDS011;1113;42.018;23.986;2023-04-25T07:51:45;3.03;;;1.97;;
2213;SDS011;1113;42.018;23.986;2023-04-25T07:54:13;4.30;;;2.30;;
2213;SDS011;1113;42.018;23.986;2023-04-25T07:56:41;2.90;;;2.40;;
2213;SDS011;1113;42.018;23.986;2023-04-25T07:59:08;3.23;;;2.10;;
2213;SDS011;1113;42.018;23.986;2023-04-25T08:01:34;2.80;;;2.23;;
2213;SDS011;1113;42.018;23.986;2023-04-25T08:04:01;4.77;;;2.30;;
2213;SDS011;1113;42.018;23.986;2023-04-25T08:06:27;2.60;;;2.10;;
2213;SDS011;1113;42.018;23.986;2023-04-25T08:08:54;2.87;;;2.17;;
2213;SDS011;1113;42.018;23.986;2023-04-25T08:11:20;2.90;;;2.13;;
2213;SDS011;1113;42.018;23.986;2023-04-25T08:13:48;4.30;;;3.13;;
2213;SDS011;1113;42.018;23.986;2023-04-25T08:16:15;3.17;;;2.53;;
2213;SDS011;1113;42.018;23.986;2023-04-25T08:18:41;4.13;;;2.67;;
2213;SDS011;1113;42.018;23.986;2023-04-25T08:21:08;5.00;;;3.30;;
2213;SDS011;1113;42.018;23.986;2023-04-25T08:23:36;4.00;;;2.47;;
2213;SDS011;1113;42.018;23.986;2023-04-25T08:26:03;3.40;;;2.33;;
2213;SDS011;1113;42.018;23.986;2023-04-25T08:28:29;3.90;;;2.80;;
2213;SDS011;1113;42.018;23.986;2023-04-25T08:30:58;5.57;;;2.60;;
2213;SDS011;1113;42.018;23.986;2023-04-25T08:33:24;3.37;;;2.30;;
2213;SDS011;1113;42.018;23.986;2023-04-25T08:35:51;4.70;;;3.10;;
2213;SDS011;1113;42.018;23.986;2023-04-25T08:38:18;2.47;;;2.00;;
2213;SDS011;1113;42.018;23.986;2023-04-25T08:40:44;2.57;;;2.13;;
2213;SDS011;1113;42.018;23.986;2023-04-25T08:43:15;4.33;;;2.67;;
2213;SDS011;1113;42.018;23.986;2023-04-25T08:45:44;4.67;;;2.90;;
2213;SDS011;1113;42.018;23.986;2023-04-25T08:48:12;3.27;;;2.30;;
2213;SDS011;1113;42.018;23.986;2023-04-25T08:50:39;2.83;;;2.13;;
2213;SDS011;1113;42.018;23.986;2023-04-25T08:53:06;3.03;;;1.80;;
2213;SDS011;1113;42.018;23.986;2023-04-25T08:55:35;2.57;;;1.77;;
2213;SDS011;1113;42.018;23.986;2023-04-25T08:58:02;2.33;;;1.67;;
2213;SDS011;1113;42.018;23.986;2023-04-25T09:00:30;2.30;;;1.70;;
2213;SDS011;1113;42.018;23.986;2023-04-25T09:02:57;1.80;;;1.17;;
2213;SDS011;1113;42.018;23.986;2023-04-25T09:05:26;2.10;;;1.47;;
2213;SDS011;1113;42.018;23.986;2023-04-25T09:07:53;2.30;;;1.50;;
2213;SDS011;1113;42.018;23.986;2023-04-25T09:10:21;2.53;;;1.50;;
2213;SDS011;1113;42.018;23.986;2023-04-25T09:13:01;2.20;;;1.30;;
2213;SDS011;1113;42.018;23.986;2023-04-25T09:15:27;2.10;;;1.23;;
2213;SDS011;1113;42.018;23.986;2023-04-25T09:17:55;1.77;;;1.23;;
2213;SDS011;1113;42.018;23.986;2023-04-25T09:20:22;2.27;;;1.70;;
2213;SDS011;1113;42.018;23.986;2023-04-25T09:22:51;1.83;;;1.13;;
2213;SDS011;1113;42.018;23.986;2023-04-25T09:25:27;1.80;;;1.00;;
2213;SDS011;1113;42.018;23.986;2023-04-25T09:28:00;1.83;;;0.83;;
2213;SDS011;1113;42.018;23.986;2023-04-25T09:30:29;1.60;;;0.87;;
2213;SDS011;1113;42.018;23.986;2023-04-25T09:32:56;1.80;;;1.10;;
2213;SDS011;1113;42.018;23.986;2023-04-25T09:35:23;2.90;;;1.60;;
2213;SDS011;1113;42.018;23.986;2023-04-25T09:37:52;2.27;;;1.40;;
2213;SDS011;1113;42.018;23.986;2023-04-25T09:40:19;2.20;;;1.10;;
2213;SDS011;1113;42.018;23.986;2023-04-25T09:42:45;1.67;;;1.00;;
2213;SDS011;1113;42.018;23.986;2023-04-25T09:45:12;2.00;;;1.10;;
2213;SDS011;1113;42.018;23.986;2023-04-25T09:47:40;2.00;;;1.20;;
2213;SDS011;1113;42.018;23.986;2023-04-25T09:50:13;2.60;;;1.57;;
2213;SDS011;1113;42.018;23.986;2023-04-25T09:52:40;5.30;;;2.50;;
2213;SDS011;1113;42.018;23.986;2023-04-25T09:55:08;3.33;;;1.93;;
2213;SDS011;1113;42.018;23.986;2023-04-25T09:57:34;7.00;;;2.47;;
2213;SDS011;1113;42.018;23.986;2023-04-25T10:00:05;2.47;;;1.37;;
2213;SDS011;1113;42.018;23.986;2023-04-25T10:02:37;3.90;;;1.87;;
2213;SDS011;1113;42.018;23.986;2023-04-25T10:05:05;2.60;;;1.53;;
2213;SDS011;1113;42.018;23.986;2023-04-25T10:07:32;2.97;;;1.20;;
2213;SDS011;1113;42.018;23.986;2023-04-25T10:10:00;2.97;;;2.13;;
2213;SDS011;1113;42.018;23.986;2023-04-25T10:12:31;2.13;;;1.43;;
2213;SDS011;1113;42.018;23.986;2023-04-25T10:15:00;3.27;;;1.60;;
2213;SDS011;1113;42.018;23.986;2023-04-25T10:17:26;3.00;;;2.00;;
2213;SDS011;1113;42.018;23.986;2023-04-25T10:19:53;4.43;;;1.60;;
2213;SDS011;1113;42.018;23.986;2023-04-25T10:22:23;2.30;;;1.37;;
2213;SDS011;1113;42.018;23.986;2023-04-25T10:24:52;3.67;;;3.03;;
2213;SDS011;1113;42.018;23.986;2023-04-25T10:27:19;2.17;;;1.20;;
2213;SDS011;1113;42.018;23.986;2023-04-25T10:29:47;3.00;;;1.30;;
2213;SDS011;1113;42.018;23.986;2023-04-25T10:32:26;2.60;;;1.40;;
2213;SDS011;1113;42.018;23.986;2023-04-25T10:34:52;1.70;;;0.90;;
2213;SDS011;1113;42.018;23.986;2023-04-25T10:37:20;1.90;;;1.27;;
2213;SDS011;1113;42.018;23.986;2023-04-25T10:39:46;2.90;;;1.20;;
2213;SDS011;1113;42.018;23.986;2023-04-25T10:42:13;2.10;;;0.90;;
2213;SDS011;1113;42.018;23.986;2023-04-25T10:44:39;5.07;;;2.50;;
2213;SDS011;1113;42.018;23.986;2023-04-25T10:47:07;4.50;;;1.90;;
2213;SDS011;1113;42.018;23.986;2023-04-25T10:49:36;2.13;;;1.20;;
2213;SDS011;1113;42.018;23.986;2023-04-25T10:52:15;1.87;;;1.20;;
2213;SDS011;1113;42.018;23.986;2023-04-25T10:54:49;2.47;;;1.00;;
2213;SDS011;1113;42.018;23.986;2023-04-25T10:57:30;1.90;;;1.00;;
2213;SDS011;1113;42.018;23.986;2023-04-25T11:00:00;1.90;;;1.00;;
2213;SDS011;1113;42.018;23.986;2023-04-25T11:02:31;1.77;;;0.90;;
2213;SDS011;1113;42.018;23.986;2023-04-25T11:04:58;2.37;;;0.90;;
2213;SDS011;1113;42.018;23.986;2023-04-25T11:07:28;2.53;;;1.20;;
2213;SDS011;1113;42.018;23.986;2023-04-25T11:09:55;3.80;;;1.10;;
2213;SDS011;1113;42.018;23.986;2023-04-25T11:12:22;2.40;;;0.80;;
2213;SDS011;1113;42.018;23.986;2023-04-25T11:14:50;2.53;;;1.00;;
2213;SDS011;1113;42.018;23.986;2023-04-25T11:17:24;2.07;;;1.10;;
2213;SDS011;1113;42.018;23.986;2023-04-25T11:19:52;2.00;;;0.93;;
2213;SDS011;1113;42.018;23.986;2023-04-25T11:22:20;1.80;;;1.10;;
2213;SDS011;1113;42.018;23.986;2023-04-25T11:24:47;2.57;;;1.20;;
2213;SDS011;1113;42.018;23.986;2023-04-25T11:27:14;1.90;;;1.07;;
2213;SDS011;1113;42.018;23.986;2023-04-25T11:29:40;1.73;;;0.90;;
2213;SDS011;1113;42.018;23.986;2023-04-25T11:32:07;2.40;;;1.13;;
2213;SDS011;1113;42.018;23.986;2023-04-25T11:34:33;2.87;;;1.43;;
2213;SDS011;1113;42.018;23.986;2023-04-25T11:37:03;3.00;;;1.20;;
2213;SDS011;1113;42.018;23.986;2023-04-25T11:39:31;2.40;;;1.03;;
2213;SDS011;1113;42.018;23.986;2023-04-25T11:41:57;2.00;;;1.10;;
2213;SDS011;1113;42.018;23.986;2023-04-25T11:44:24;2.90;;;1.87;;
2213;SDS011;1113;42.018;23.986;2023-04-25T11:46:50;3.63;;;2.30;;
2213;SDS011;1113;42.018;23.986;2023-04-25T11:49:17;2.10;;;1.17;;
2213;SDS011;1113;42.018;23.986;2023-04-25T11:51:44;3.17;;;1.30;;
2213;SDS011;1113;42.018;23.986;2023-04-25T11:54:12;2.27;;;1.37;;
2213;SDS011;1113;42.018;23.986;2023-04-25T11:56:40;1.90;;;1.03;;
2213;SDS011;1113;42.018;23.986;2023-04-25T11:59:14;2.17;;;1.00;;
2213;SDS011;1113;42.018;23.986;2023-04-25T12:01:47;1.80;;;1.10;;
2213;SDS011;1113;42.018;23.986;2023-04-25T12:04:14;1.93;;;1.00;;
2213;SDS011;1113;42.018;23.986;2023-04-25T12:06:41;1.90;;;0.97;;
2213;SDS011;1113;42.018;23.986;2023-04-25T12:09:08;1.80;;;1.30;;
2213;SDS011;1113;42.018;23.986;2023-04-25T12:11:41;3.20;;;2.40;;
2213;SDS011;1113;42.018;23.986;2023-04-25T12:14:08;2.87;;;1.37;;
2213;SDS011;1113;42.018;23.986;2023-04-25T12:16:42;2.53;;;1.40;;
2213;SDS011;1113;42.018;23.986;2023-04-25T12:19:08;2.97;;;1.50;;
2213;SDS011;1113;42.018;23.986;2023-04-25T12:21:35;2.93;;;1.80;;
2213;SDS011;1113;42.018;23.986;2023-04-25T12:24:09;2.83;;;1.97;;
2213;SDS011;1113;42.018;23.986;2023-04-25T12:26:46;3.10;;;2.07;;
2213;SDS011;1113;42.018;23.986;2023-04-25T12:29:15;3.40;;;2.43;;
2213;SDS011;1113;42.018;23.986;2023-04-25T12:31:42;2.70;;;1.60;;
2213;SDS011;1113;42.018;23.986;2023-04-25T12:34:09;3.60;;;1.20;;
2213;SDS011;1113;42.018;23.986;2023-04-25T12:36:35;2.97;;;1.10;;
2213;SDS011;1113;42.018;23.986;2023-04-25T12:39:02;3.90;;;1.40;;
2213;SDS011;1113;42.018;23.986;2023-04-25T12:41:29;1.90;;;1.17;;
2213;SDS011;1113;42.018;23.986;2023-04-25T12:43:57;2.83;;;1.40;;
2213;SDS011;1113;42.018;23.986;2023-04-25T12:46:23;3.20;;;1.30;;
2213;SDS011;1113;42.018;23.986;2023-04-25T12:48:50;1.87;;;0.93;;
2213;SDS011;1113;42.018;23.986;2023-04-25T12:51:17;1.90;;;0.90;;
2213;SDS011;1113;42.018;23.986;2023-04-25T12:53:43;2.97;;;1.60;;
2213;SDS011;1113;42.018;23.986;2023-04-25T12:56:10;1.70;;;0.80;;
2213;SDS011;1113;42.018;23.986;2023-04-25T12:58:36;1.83;;;1.10;;
2213;SDS011;1113;42.018;23.986;2023-04-25T13:01:04;1.63;;;0.90;;
2213;SDS011;1113;42.018;23.986;2023-04-25T13:03:32;1.97;;;0.90;;
2213;SDS011;1113;42.018;23.986;2023-04-25T13:06:00;2.13;;;1.00;;
2213;SDS011;1113;42.018;23.986;2023-04-25T13:08:26;2.67;;;0.90;;
2213;SDS011;1113;42.018;23.986;2023-04-25T13:10:53;2.13;;;0.93;;
2213;SDS011;1113;42.018;23.986;2023-04-25T13:13:19;1.57;;;0.70;;
2213;SDS011;1113;42.018;23.986;2023-04-25T13:15:49;1.90;;;0.90;;
2213;SDS011;1113;42.018;23.986;2023-04-25T13:18:18;1.57;;;0.70;;
2213;SDS011;1113;42.018;23.986;2023-04-25T13:20:45;1.80;;;1.00;;
2213;SDS011;1113;42.018;23.986;2023-04-25T13:23:12;5.07;;;2.10;;
2213;SDS011;1113;42.018;23.986;2023-04-25T13:25:38;2.70;;;1.10;;
2213;SDS011;1113;42.018;23.986;2023-04-25T13:28:05;3.43;;;1.23;;
2213;SDS011;1113;42.018;23.986;2023-04-25T13:30:31;2.00;;;1.10;;
2213;SDS011;1113;42.018;23.986;2023-04-25T13:32:58;1.60;;;0.80;;
2213;SDS011;1113;42.018;23.986;2023-04-25T13:35:29;1.87;;;0.83;;
2213;SDS011;1113;42.018;23.986;2023-04-25T13:37:56;5.30;;;1.00;;
2213;SDS011;1113;42.018;23.986;2023-04-25T13:40:22;1.80;;;1.03;;
2213;SDS011;1113;42.018;23.986;2023-04-25T13:42:49;1.50;;;0.67;;
2213;SDS011;1113;42.018;23.986;2023-04-25T13:45:16;2.03;;;0.90;;
2213;SDS011;1113;42.018;23.986;2023-04-25T13:47:42;1.90;;;1.00;;
2213;SDS011;1113;42.018;23.986;2023-04-25T13:50:09;1.80;;;0.90;;
2213;SDS011;1113;42.018;23.986;2023-04-25T13:52:37;3.37;;;2.20;;
2213;SDS011;1113;42.018;23.986;2023-04-25T13:55:04;9.53;;;7.30;;
2213;SDS011;1113;42.018;23.986;2023-04-25T13:57:35;4.90;;;3.30;;
2213;SDS011;1113;42.018;23.986;2023-04-25T14:00:18;7.63;;;5.23;;
2213;SDS011;1113;42.018;23.986;2023-04-25T14:02:48;3.87;;;2.90;;
2213;SDS011;1113;42.018;23.986;2023-04-25T14:05:15;3.83;;;3.30;;
2213;SDS011;1113;42.018;23.986;2023-04-25T14:07:43;5.67;;;3.90;;
2213;SDS011;1113;42.018;23.986;2023-04-25T14:10:10;5.13;;;3.43;;
2213;SDS011;1113;42.018;23.986;2023-04-25T14:12:36;4.47;;;2.97;;
2213;SDS011;1113;42.018;23.986;2023-04-25T14:15:03;3.60;;;1.50;;
2213;SDS011;1113;42.018;23.986;2023-04-25T14:17:30;4.33;;;0.97;;
2213;SDS011;1113;42.018;23.986;2023-04-25T14:19:57;1.87;;;0.97;;
2213;SDS011;1113;42.018;23.986;2023-04-25T14:22:23;2.40;;;1.33;;
2213;SDS011;1113;42.018;23.986;2023-04-25T14:24:52;2.53;;;1.40;;
2213;SDS011;1113;42.018;23.986;2023-04-25T14:27:18;2.30;;;1.20;;
2213;SDS011;1113;42.018;23.986;2023-04-25T14:29:45;2.17;;;1.47;;
2213;SDS011;1113;42.018;23.986;2023-04-25T14:32:12;2.27;;;1.17;;
2213;SDS011;1113;42.018;23.986;2023-04-25T14:34:41;3.47;;;2.77;;
2213;SDS011;1113;42.018;23.986;2023-04-25T14:37:07;2.10;;;1.20;;
2213;SDS011;1113;42.018;23.986;2023-04-25T14:39:34;2.23;;;1.10;;
2213;SDS011;1113;42.018;23.986;2023-04-25T14:42:03;2.83;;;1.63;;
2213;SDS011;1113;42.018;23.986;2023-04-25T14:44:29;1.90;;;1.00;;
2213;SDS011;1113;42.018;23.986;2023-04-25T14:46:56;2.00;;;1.13;;
2213;SDS011;1113;42.018;23.986;2023-04-25T14:49:22;1.80;;;1.00;;
2213;SDS011;1113;42.018;23.986;2023-04-25T14:51:49;2.07;;;1.20;;
2213;SDS011;1113;42.018;23.986;2023-04-25T14:54:18;1.90;;;0.80;;
2213;SDS011;1113;42.018;23.986;2023-04-25T14:56:45;2.40;;;1.10;;
2213;SDS011;1113;42.018;23.986;2023-04-25T14:59:13;1.97;;;0.97;;
2213;SDS011;1113;42.018;23.986;2023-04-25T15:01:43;3.13;;;1.00;;